首页
METAR-TAF:

METAR-TAF

机场 :

香港國際機場

香港, 中华人民共和国

纬度: 22-19N, 经度: 113-55E, 海拔: 9米

当前天气观测

该预报发布于33分钟前的17:30 UTC
风速2节,风向
温度 20°C
湿度 68%
气压 1019 hPa
能见度10公里或以上
少量云层高于4500英尺

METAR: VHHH 201730Z 19002KT 9999 FEW045 20/14 Q1019 NOSIG

时间: 02:03 (18:03 UTC)

预报

该预报发布于1小时和3分钟前的17:00 UTC
预报有效从20日的 18点(UTC)到 21日的 24点(UTC)
风速10节,风向东转东北
能见度10公里或以上
少量云层高于4000英尺
成为
从 21日的 03点(UTC)到 21日的 05点(UTC)
风速10节,风向西
成为
从 21日的 09点(UTC)到 21日的 11点(UTC)
风速10节,风向东转东北
短暂存在
从 21日的 09点(UTC)到 21日的 15点(UTC)
风速10节,风向东转东南

TAF: VHHH 201700Z 2018/2124 06010KT 9999 FEW040 TX25/2106Z TN19/2022Z TN20/2122Z BECMG 2103/2105 28010KT BECMG 2109/2111 06010KT TEMPO 2109/2115 12010KT

超过4000个机场的气象观测和天气预报(METAR&TAF报告)。

可查询的气象台以黄色和红色小点在地图上表示。

将鼠标移到小点上方,可查看气象台名称。

然后点击查看天气观测和预报。

如需切换地图:点击带黑十字的绿色按钮放大地图;点击带横线的绿色按钮缩小地图;或者点击绿色箭头查看邻近地区的地图。


METAR-TAF: